Time;durP1;ratioP1;P1;durP2;ratioP2;P2;SDS_P1;SDS_P2;PMS_P1;PMS_P2;Temp;Humidity;BMP_temperature;BMP_pressure;BME280_temperature;BME280_humidity;BME280_pressure;Samples;Min_cycle;Max_cycle;Signal;HPM_P1;HPM_P2
2022/03/27 00:01:14;;;;;;;26.30;10.80;;;;;;;2.41;54.95;102111.97;5073909;28;20043;-68
2022/03/27 00:03:40;;;;;;;35.75;17.17;;;;;;;2.41;55.21;102114.56;5073825;28;20040;-69
2022/03/27 00:06:05;;;;;;;27.88;13.63;;;;;;;2.37;55.12;102120.47;5073781;28;20032;-69
2022/03/27 00:08:30;;;;;;;24.50;12.88;;;;;;;2.30;55.21;102115.84;5074580;28;20058;-68
2022/03/27 00:13:41;;;;;;;27.58;12.45;;;;;;;2.19;55.59;102113.75;5075467;28;20079;-69
2022/03/27 00:16:06;;;;;;;29.40;13.20;;;;;;;2.18;55.52;102121.44;5074962;28;20028;-68
2022/03/27 00:18:32;;;;;;;28.73;11.75;;;;;;;2.16;55.43;102126.56;5075029;28;20040;-68
2022/03/27 00:20:57;;;;;;;30.52;12.85;;;;;;;2.12;55.57;102122.09;5073441;28;20044;-68
2022/03/27 00:23:23;;;;;;;28.20;12.60;;;;;;;2.14;55.75;102123.00;5074774;28;20035;-68
2022/03/27 00:25:50;;;;;;;32.78;13.90;;;;;;;2.08;55.73;102127.09;5074519;28;20040;-68
2022/03/27 00:28:16;;;;;;;27.10;12.07;;;;;;;2.03;56.11;102126.00;5074347;28;20079;-68
2022/03/27 00:30:41;;;;;;;29.15;12.45;;;;;;;2.03;55.89;102128.59;5074313;28;20124;-68
2022/03/27 00:33:07;;;;;;;28.35;10.32;;;;;;;2.04;56.09;102132.97;5074451;28;20028;-68
2022/03/27 00:35:33;;;;;;;23.30;10.10;;;;;;;1.97;56.04;102124.94;5073362;28;20044;-69
2022/03/27 00:37:58;;;;;;;30.13;11.02;;;;;;;1.98;56.10;102129.28;5074247;28;20059;-68
2022/03/27 00:40:24;;;;;;;26.02;11.70;;;;;;;1.95;56.35;102136.03;5074201;28;20384;-68
2022/03/27 00:42:49;;;;;;;28.15;11.82;;;;;;;1.93;56.31;102124.75;5056087;28;20063;-68
2022/03/27 00:45:15;;;;;;;18.60;8.48;;;;;;;1.93;56.27;102124.75;5074208;28;20085;-68
2022/03/27 00:47:40;;;;;;;18.13;8.00;;;;;;;1.96;56.02;102127.47;5074172;28;20039;-68
2022/03/27 00:50:06;;;;;;;21.10;8.77;;;;;;;1.98;56.05;102129.28;5072798;28;20509;-68
2022/03/27 00:52:32;;;;;;;18.83;7.72;;;;;;;1.94;55.87;102127.38;5074120;28;20090;-69
2022/03/27 00:54:58;;;;;;;19.70;7.38;;;;;;;1.92;56.14;102128.16;5072833;28;20442;-68
2022/03/27 00:57:24;;;;;;;13.10;7.10;;;;;;;1.89;56.17;102138.41;5072438;28;20170;-68
2022/03/27 00:59:49;;;;;;;19.10;7.35;;;;;;;1.86;56.43;102133.97;5039625;28;20127;-68
2022/03/27 01:02:15;;;;;;;20.23;8.65;;;;;;;1.81;56.41;102134.59;5074087;28;20028;-68
2022/03/27 01:04:44;;;;;;;20.38;8.80;;;;;;;1.81;56.41;102135.50;5074441;28;20067;-68
2022/03/27 01:07:17;;;;;;;21.73;9.82;;;;;;;1.78;57.05;102137.06;5072796;28;20027;-68
2022/03/27 01:09:45;;;;;;;22.20;10.60;;;;;;;1.75;56.99;102144.69;5072653;28;20123;-68
2022/03/27 01:12:23;;;;;;;21.88;9.52;;;;;;;1.74;57.04;102149.00;5072959;28;20051;-68
2022/03/27 01:14:50;;;;;;;23.58;10.65;;;;;;;1.71;57.03;102144.56;5072688;28;20062;-68
2022/03/27 01:17:18;;;;;;;21.95;10.52;;;;;;;1.67;57.43;102147.84;5072859;28;20039;-68
2022/03/27 01:19:50;;;;;;;20.02;9.93;;;;;;;1.57;57.48;102140.53;5072052;28;20025;-68
2022/03/27 01:22:17;;;;;;;21.45;9.55;;;;;;;1.52;57.85;102146.31;5074093;28;20077;-68
2022/03/27 01:24:47;;;;;;;22.92;10.07;;;;;;;1.51;57.80;102136.75;5072732;28;20040;-68
2022/03/27 01:27:12;;;;;;;21.80;9.48;;;;;;;1.51;57.83;102142.81;5055733;28;20036;-68
2022/03/27 01:29:38;;;;;;;23.20;10.60;;;;;;;1.50;57.93;102142.78;5072634;28;20365;-68
2022/03/27 01:32:05;;;;;;;28.40;11.35;;;;;;;1.43;58.00;102141.59;5072455;28;20116;-69
2022/03/27 01:34:32;;;;;;;24.52;10.23;;;;;;;1.38;58.34;102143.13;5055570;28;20443;-68
2022/03/27 01:37:10;;;;;;;21.15;9.05;;;;;;;1.34;58.62;102136.03;5055548;28;20032;-68
2022/03/27 01:39:37;;;;;;;22.58;9.60;;;;;;;1.37;58.54;102151.72;5073401;28;20043;-68
2022/03/27 01:42:03;;;;;;;21.48;10.00;;;;;;;1.42;58.41;102155.38;5072108;28;20032;-68
2022/03/27 01:44:29;;;;;;;17.80;9.80;;;;;;;1.39;58.59;102148.34;5055583;28;20056;-68
2022/03/27 01:46:55;;;;;;;24.20;9.38;;;;;;;1.37;58.66;102146.53;5073531;28;20040;-69
2022/03/27 01:49:22;;;;;;;18.75;8.98;;;;;;;1.36;58.89;102155.13;5072276;28;20028;-68
2022/03/27 01:51:47;;;;;;;23.83;8.98;;;;;;;1.33;59.01;102160.19;5055424;28;20032;-68
2022/03/27 01:54:13;;;;;;;21.98;10.63;;;;;;;1.30;59.34;102160.03;5072186;28;20086;-69
2022/03/27 01:56:40;;;;;;;20.45;9.23;;;;;;;1.29;59.18;102158.28;5071927;28;20119;-68
2022/03/27 01:59:07;;;;;;;24.63;10.15;;;;;;;1.32;59.22;102158.41;5071644;28;20082;-69
2022/03/27 02:01:34;;;;;;;21.00;10.07;;;;;;;1.30;59.11;102155.72;5055606;28;20040;-69
2022/03/27 02:04:00;;;;;;;20.20;10.05;;;;;;;1.28;59.42;102159.06;5055315;28;20036;-68
2022/03/27 02:06:25;;;;;;;21.80;9.82;;;;;;;1.27;59.27;102165.06;5072410;28;20111;-68
2022/03/27 02:08:51;;;;;;;20.83;9.98;;;;;;;1.25;59.49;102161.53;5073556;28;20463;-68
2022/03/27 02:11:18;;;;;;;19.00;9.50;;;;;;;1.22;59.83;102157.09;5055438;28;20032;-68
2022/03/27 02:13:44;;;;;;;20.00;10.20;;;;;;;1.20;59.96;102170.00;5072015;28;20024;-69
2022/03/27 02:16:09;;;;;;;20.08;9.88;;;;;;;1.20;59.86;102162.22;5073566;28;20028;-69
2022/03/27 02:18:35;;;;;;;18.95;9.38;;;;;;;1.19;60.10;102165.59;5073172;28;20143;-69
2022/03/27 02:21:03;;;;;;;19.50;9.48;;;;;;;1.17;60.40;102166.38;5071965;28;20036;-69
2022/03/27 02:23:29;;;;;;;19.13;9.68;;;;;;;1.11;60.64;102171.25;5071863;28;20059;-69
2022/03/27 02:25:55;;;;;;;17.73;8.73;;;;;;;1.14;60.82;102168.81;5055118;28;20048;-69
2022/03/27 02:28:21;;;;;;;18.30;8.80;;;;;;;1.13;60.58;102178.28;5071754;28;20032;-68
2022/03/27 02:30:48;;;;;;;18.45;8.50;;;;;;;1.12;60.91;102170.47;5073894;28;20031;-68
2022/03/27 02:33:14;;;;;;;16.98;8.65;;;;;;;1.09;61.28;102176.38;5075814;28;20033;-68
2022/03/27 02:35:39;;;;;;;18.40;8.55;;;;;;;1.05;61.30;102178.78;5076753;28;20101;-69
2022/03/27 02:38:06;;;;;;;20.52;9.32;;;;;;;0.98;61.63;102175.88;5077034;28;20029;-69
2022/03/27 02:40:33;;;;;;;16.67;7.90;;;;;;;0.99;61.44;102179.34;5075384;28;20171;-69
2022/03/27 02:43:01;;;;;;;18.58;7.93;;;;;;;0.99;61.61;102179.34;5058775;28;20032;-68
2022/03/27 02:45:28;;;;;;;18.42;8.32;;;;;;;0.98;61.62;102181.06;5059087;28;20032;-68
2022/03/27 02:47:57;;;;;;;18.08;7.95;;;;;;;1.00;61.51;102173.38;5058654;28;20201;-69
2022/03/27 02:50:24;;;;;;;16.67;7.82;;;;;;;1.00;61.43;102183.75;5075357;28;20032;-68
2022/03/27 02:52:50;;;;;;;20.25;8.48;;;;;;;1.01;61.70;102184.63;5075152;28;20071;-68
2022/03/27 02:55:16;;;;;;;23.45;8.35;;;;;;;0.98;61.71;102182.75;5058529;28;20388;-68
2022/03/27 02:57:41;;;;;;;19.15;7.88;;;;;;;0.95;61.94;102192.97;5074998;28;20028;-69
2022/03/27 03:00:08;;;;;;;16.23;8.30;;;;;;;0.93;61.85;102192.03;5076353;28;20391;-68
2022/03/27 03:02:35;;;;;;;16.70;8.43;;;;;;;0.90;61.87;102184.13;5074968;28;20029;-68
2022/03/27 03:05:01;;;;;;;17.13;7.97;;;;;;;0.89;62.07;102185.81;5058361;28;20409;-68
2022/03/27 03:07:27;;;;;;;17.45;7.75;;;;;;;0.91;62.23;102183.28;5058263;28;20039;-69
2022/03/27 03:09:53;;;;;;;20.13;8.52;;;;;;;0.87;62.24;102181.38;5076185;28;20041;-68
2022/03/27 03:12:19;;;;;;;14.48;6.50;;;;;;;0.94;62.18;102186.91;5074990;28;20044;-68
2022/03/27 03:14:44;;;;;;;14.52;6.93;;;;;;;0.97;61.99;102187.06;5074740;28;20036;-68
2022/03/27 03:17:10;;;;;;;15.18;6.55;;;;;;;1.00;62.14;102191.50;5074775;28;20128;-68
2022/03/27 03:19:36;;;;;;;17.40;8.40;;;;;;;1.02;61.88;102178.63;5075968;28;20114;-68
2022/03/27 03:22:02;;;;;;;14.02;7.60;;;;;;;0.97;62.13;102191.34;5074670;28;20040;-68
2022/03/27 03:24:28;;;;;;;20.83;8.40;;;;;;;0.96;62.14;102187.00;5075766;28;20032;-68
2022/03/27 03:26:57;;;;;;;19.20;8.30;;;;;;;0.95;62.72;102187.78;5074380;28;20115;-68
2022/03/27 03:29:23;;;;;;;16.00;7.68;;;;;;;0.93;62.40;102181.69;5075769;28;20044;-68
2022/03/27 03:31:49;;;;;;;17.70;8.23;;;;;;;0.86;62.67;102184.78;5074516;28;20087;-68
2022/03/27 03:34:16;;;;;;;19.90;8.77;;;;;;;0.77;62.88;102182.66;5074486;28;20033;-69
2022/03/27 03:36:43;;;;;;;19.63;8.45;;;;;;;0.69;62.87;102174.53;5074384;28;20473;-68
2022/03/27 03:39:08;;;;;;;14.43;7.43;;;;;;;0.66;63.26;102179.56;5075558;28;20043;-69
2022/03/27 03:41:34;;;;;;;15.77;7.82;;;;;;;0.63;63.22;102179.41;5074731;28;20033;-68
2022/03/27 03:43:59;;;;;;;15.23;7.15;;;;;;;0.64;63.28;102181.22;5075244;28;20071;-69
2022/03/27 03:46:25;;;;;;;18.83;8.23;;;;;;;0.68;63.32;102179.66;5075868;28;20032;-69
2022/03/27 03:48:51;;;;;;;18.10;7.47;;;;;;;0.67;63.16;102167.50;5075471;28;20040;-69
2022/03/27 03:51:17;;;;;;;18.13;7.68;;;;;;;0.70;63.18;102165.06;5074186;28;20078;-68
2022/03/27 03:53:42;;;;;;;18.20;7.38;;;;;;;0.74;63.12;102167.88;5074156;28;20040;-69
2022/03/27 03:56:14;;;;;;;15.90;7.30;;;;;;;0.79;63.19;102160.31;5075439;28;20028;-69
2022/03/27 03:58:39;;;;;;;15.60;7.15;;;;;;;0.79;63.04;102162.03;5074050;28;20057;-69
2022/03/27 04:01:05;;;;;;;15.57;7.18;;;;;;;0.82;63.18;102157.00;5073901;28;20138;-68
2022/03/27 04:03:30;;;;;;;16.83;7.10;;;;;;;0.81;63.36;102157.81;5075377;28;20123;-69
2022/03/27 04:05:56;;;;;;;16.05;6.93;;;;;;;0.83;63.01;102158.75;5075094;28;20040;-69
2022/03/27 04:08:21;;;;;;;19.40;7.75;;;;;;;0.80;63.49;102168.97;5074010;28;20073;-69
2022/03/27 04:10:47;;;;;;;17.48;7.38;;;;;;;0.76;63.43;102170.56;5075025;28;20032;-69
2022/03/27 04:13:13;;;;;;;19.52;8.63;;;;;;;0.73;63.69;102176.44;5056812;28;20064;-69
2022/03/27 04:15:39;;;;;;;17.17;7.75;;;;;;;0.72;63.55;102177.28;5073711;28;20063;-68
2022/03/27 04:18:05;;;;;;;19.15;8.50;;;;;;;0.77;63.33;102176.59;5074865;28;20021;-69
2022/03/27 04:20:30;;;;;;;20.88;7.95;;;;;;;0.71;63.39;102191.00;5074888;28;20036;-69
2022/03/27 04:22:56;;;;;;;17.63;7.57;;;;;;;0.75;63.33;102189.44;5074866;28;20039;-68
2022/03/27 04:25:22;;;;;;;14.18;6.68;;;;;;;0.74;63.22;102188.56;5075013;28;20423;-68
2022/03/27 04:27:47;;;;;;;18.23;7.15;;;;;;;0.68;63.41;102193.47;5075144;28;20033;-69
2022/03/27 04:30:13;;;;;;;17.10;8.20;;;;;;;0.67;63.34;102191.69;5074482;28;20480;-69
2022/03/27 04:32:39;;;;;;;15.75;7.82;;;;;;;0.67;63.16;102199.44;5073467;28;20032;-68
2022/03/27 04:35:07;;;;;;;17.50;7.60;;;;;;;0.64;63.63;102201.91;5073248;28;20396;-69
2022/03/27 04:37:37;;;;;;;16.45;6.53;;;;;;;0.65;63.56;102195.03;5074454;28;20572;-68
2022/03/27 04:40:03;;;;;;;16.50;7.50;;;;;;;0.71;63.45;102201.34;5074306;28;20483;-68
2022/03/27 04:42:29;;;;;;;17.40;8.43;;;;;;;0.68;63.72;102195.19;5073176;28;20072;-69
2022/03/27 04:44:55;;;;;;;19.90;8.93;;;;;;;0.65;63.64;102195.91;5073110;28;20115;-68
2022/03/27 04:47:21;;;;;;;19.08;8.30;;;;;;;0.70;63.32;102197.00;5073218;28;20072;-69
2022/03/27 04:49:47;;;;;;;19.63;9.30;;;;;;;0.67;63.50;102204.59;5072872;28;20472;-68
2022/03/27 04:52:13;;;;;;;15.73;7.47;;;;;;;0.79;63.20;102208.59;5074539;28;20044;-69
2022/03/27 04:54:39;;;;;;;19.67;8.23;;;;;;;0.86;62.88;102218.44;5073313;28;20035;-69
2022/03/27 04:57:05;;;;;;;16.45;7.72;;;;;;;0.96;63.01;102229.31;5072916;28;20186;-68
2022/03/27 04:59:31;;;;;;;19.60;7.53;;;;;;;0.99;62.87;102231.13;5056193;28;20053;-69
2022/03/27 05:01:57;;;;;;;19.30;8.38;;;;;;;1.03;62.64;102230.44;5074097;28;20036;-69
2022/03/27 05:04:23;;;;;;;21.00;9.43;;;;;;;1.01;62.52;102226.03;5072821;28;20077;-69
2022/03/27 05:06:48;;;;;;;17.63;8.65;;;;;;;1.08;62.86;102234.16;5072750;28;20472;-69
2022/03/27 05:09:14;;;;;;;19.55;9.75;;;;;;;1.16;62.55;102229.34;5073929;28;20461;-67
2022/03/27 05:11:39;;;;;;;19.38;9.52;;;;;;;1.15;62.64;102225.84;5073958;28;20024;-67
2022/03/27 05:14:05;;;;;;;22.58;9.18;;;;;;;1.22;62.74;102238.25;5073761;28;20456;-67
2022/03/27 05:16:30;;;;;;;18.92;9.05;;;;;;;1.32;62.24;102247.34;5072485;28;20038;-68
2022/03/27 05:18:56;;;;;;;22.88;9.52;;;;;;;1.41;62.16;102246.88;5073964;28;20039;-67
2022/03/27 05:21:23;;;;;;;21.02;8.40;;;;;;;1.55;61.97;102240.59;5073881;28;20032;-67
2022/03/27 05:23:48;;;;;;;20.83;9.95;;;;;;;1.66;62.01;102239.38;5073747;28;20037;-67
2022/03/27 05:26:13;;;;;;;22.58;9.77;;;;;;;1.70;61.78;102249.06;5072740;28;20123;-67
2022/03/27 05:28:39;;;;;;;25.55;11.43;;;;;;;1.75;61.76;102249.25;5072798;28;20044;-68
2022/03/27 05:31:08;;;;;;;21.65;10.20;;;;;;;1.82;61.21;102240.94;5072560;28;20040;-68
2022/03/27 05:33:36;;;;;;;21.55;9.65;;;;;;;1.85;61.10;102235.88;5072430;28;20033;-68
2022/03/27 05:36:03;;;;;;;21.52;10.00;;;;;;;1.91;61.31;102243.03;5072661;28;20064;-68
2022/03/27 05:38:29;;;;;;;19.35;9.20;;;;;;;2.11;60.58;102254.25;5071983;28;20472;-68
2022/03/27 05:40:54;;;;;;;21.55;9.00;;;;;;;2.28;60.13;102247.22;5073254;28;20104;-68
2022/03/27 05:43:20;;;;;;;18.20;8.80;;;;;;;2.54;59.72;102246.56;5072367;28;20039;-67
2022/03/27 05:45:45;;;;;;;20.73;9.75;;;;;;;2.69;59.22;102249.78;5073784;28;20487;-68
2022/03/27 05:48:12;;;;;;;19.45;8.73;;;;;;;2.78;59.13;102244.06;5073445;28;20059;-68
2022/03/27 05:50:38;;;;;;;20.90;9.68;;;;;;;2.94;58.75;102249.03;5072237;28;20044;-68
2022/03/27 05:53:03;;;;;;;17.10;8.57;;;;;;;3.18;58.52;102243.03;5073466;28;20036;-67
2022/03/27 05:55:29;;;;;;;20.58;9.25;;;;;;;3.29;58.20;102246.91;5072481;28;20059;-68
2022/03/27 05:57:54;;;;;;;19.10;9.02;;;;;;;3.38;57.82;102246.38;5073119;28;20080;-68
2022/03/27 06:00:20;;;;;;;19.67;8.55;;;;;;;3.54;57.63;102250.44;5073477;28;20177;-68
2022/03/27 06:02:47;;;;;;;17.10;7.50;;;;;;;3.75;57.26;102256.44;5055717;28;20119;-68
2022/03/27 06:05:13;;;;;;;16.23;8.07;;;;;;;3.93;56.78;102253.59;5056944;28;20047;-68
2022/03/27 06:07:47;;;;;;;20.08;7.97;;;;;;;4.12;56.22;102261.19;5076095;28;20029;-67
2022/03/27 06:10:14;;;;;;;16.40;7.82;;;;;;;4.24;55.96;102258.13;5076072;28;20067;-67
2022/03/27 06:12:40;;;;;;;20.88;9.40;;;;;;;4.34;55.85;102262.81;5076028;28;20032;-68
2022/03/27 06:15:07;;;;;;;20.52;10.15;;;;;;;4.31;56.05;102259.22;5076058;28;20039;-68
2022/03/27 06:17:44;;;;;;;15.32;7.95;;;;;;;4.42;55.97;102260.47;5075790;28;20040;-68
2022/03/27 06:20:12;;;;;;;20.17;9.88;;;;;;;4.66;55.79;102250.84;5075877;28;20028;-68
2022/03/27 06:22:39;;;;;;;19.13;8.98;;;;;;;4.91;55.26;102262.94;5077148;28;20035;-67
2022/03/27 06:25:06;;;;;;;28.77;12.05;;;;;;;5.17;54.63;102261.13;5076167;28;20036;-68
2022/03/27 06:27:32;;;;;;;23.48;11.00;;;;;;;5.40;54.22;102258.34;5075701;28;20127;-68
2022/03/27 06:29:58;;;;;;;21.63;10.02;;;;;;;5.63;53.62;102256.41;5077057;28;20461;-68
2022/03/27 06:32:26;;;;;;;20.27;10.23;;;;;;;5.80;53.26;102255.16;5076960;28;20530;-68
2022/03/27 06:34:55;;;;;;;17.73;9.48;;;;;;;5.93;53.09;102254.66;5076719;28;20036;-68
2022/03/27 06:37:20;;;;;;;21.42;9.43;;;;;;;6.03;52.83;102253.19;5075567;28;20056;-68
2022/03/27 06:39:47;;;;;;;16.65;9.18;;;;;;;6.25;52.50;102253.75;5076803;28;20380;-68
2022/03/27 06:42:12;;;;;;;17.10;7.97;;;;;;;6.36;52.25;102267.97;5076472;28;20033;-68
2022/03/27 06:44:37;;;;;;;16.55;8.40;;;;;;;6.53;51.83;102271.88;5076727;28;20025;-68
2022/03/27 06:47:06;;;;;;;19.88;9.20;;;;;;;6.66;51.58;102268.75;5075430;28;20464;-67
2022/03/27 06:49:31;;;;;;;16.92;9.13;;;;;;;6.66;51.67;102278.28;5075261;28;20043;-68
2022/03/27 06:51:57;;;;;;;19.63;9.18;;;;;;;6.73;51.72;102274.09;5075510;28;20036;-68
2022/03/27 06:54:22;;;;;;;19.75;10.77;;;;;;;6.79;51.59;102283.00;5076548;28;20028;-68
2022/03/27 06:56:48;;;;;;;19.52;9.90;;;;;;;6.86;51.24;102282.28;5076526;28;20112;-68
2022/03/27 06:59:13;;;;;;;29.02;17.17;;;;;;;6.94;51.36;102290.28;5076191;28;20094;-68
2022/03/27 07:04:22;;;;;;;130.40;61.53;;;;;;;6.91;51.39;102292.84;5076507;28;20110;-68
2022/03/27 07:06:48;;;;;;;53.50;27.92;;;;;;;6.89;51.25;102291.91;5076211;28;20029;-68
2022/03/27 07:09:13;;;;;;;25.35;14.45;;;;;;;6.92;51.12;102286.78;5075377;28;20122;-68
2022/03/27 07:11:39;;;;;;;16.05;8.52;;;;;;;6.93;51.02;102275.47;5075054;28;20131;-68
2022/03/27 07:14:04;;;;;;;15.20;7.68;;;;;;;6.86;51.15;102277.06;5076112;28;20029;-68
2022/03/27 07:16:31;;;;;;;15.68;6.13;;;;;;;6.93;51.10;102283.31;5074848;28;20036;-68
2022/03/27 07:18:56;;;;;;;9.98;5.38;;;;;;;7.11;50.58;102278.50;5074787;28;20044;-68
2022/03/27 07:21:22;;;;;;;14.68;7.63;;;;;;;7.31;50.27;102265.00;5074774;28;20041;-68
2022/03/27 07:23:47;;;;;;;16.80;8.18;;;;;;;7.48;49.81;102267.97;5074623;28;20037;-68
2022/03/27 07:26:13;;;;;;;15.00;8.82;;;;;;;7.58;49.37;102270.81;5075913;28;20036;-68
2022/03/27 07:28:38;;;;;;;19.98;10.07;;;;;;;7.56;49.45;102267.28;5075594;28;20037;-68
2022/03/27 07:31:04;;;;;;;20.35;10.32;;;;;;;7.72;49.29;102262.34;5075540;28;20041;-68
2022/03/27 07:33:29;;;;;;;23.90;13.05;;;;;;;7.86;48.77;102261.78;5075110;28;20115;-68
2022/03/27 07:35:57;;;;;;;21.73;9.85;;;;;;;8.06;48.00;102262.16;5075812;28;20033;-68
2022/03/27 07:38:22;;;;;;;15.90;7.82;;;;;;;8.16;47.44;102255.34;5074655;28;20415;-68
2022/03/27 07:40:48;;;;;;;14.57;8.00;;;;;;;8.34;46.87;102253.06;5075612;28;20037;-68
2022/03/27 07:43:13;;;;;;;13.48;6.22;;;;;;;8.55;45.92;102257.81;5075694;28;20033;-68
2022/03/27 07:45:39;;;;;;;9.57;6.53;;;;;;;8.73;43.67;102243.22;5057333;28;20462;-68
2022/03/27 07:48:07;;;;;;;5.28;3.17;;;;;;;8.83;42.89;102238.16;5075544;28;20036;-69
2022/03/27 07:50:33;;;;;;;8.10;3.30;;;;;;;9.07;42.59;102245.50;5074237;28;20029;-68
2022/03/27 07:53:03;;;;;;;13.80;7.60;;;;;;;9.35;41.96;102245.88;5057572;28;20039;-68
2022/03/27 07:55:29;;;;;;;4.53;2.58;;;;;;;9.51;41.06;102242.59;5075355;28;20476;-68
2022/03/27 07:57:58;;;;;;;6.03;3.00;;;;;;;9.67;40.70;102237.53;5075103;28;20056;-68
2022/03/27 08:00:24;;;;;;;5.50;2.53;;;;;;;9.65;39.44;102242.75;5057390;28;20127;-68
2022/03/27 08:02:51;;;;;;;7.95;4.45;;;;;;;9.58;38.72;102248.81;5057290;28;20037;-68
2022/03/27 08:05:17;;;;;;;8.48;4.18;;;;;;;9.53;38.34;102245.22;5073944;28;20098;-68
2022/03/27 08:07:42;;;;;;;8.35;4.03;;;;;;;9.54;38.48;102242.63;5075402;28;20044;-68
2022/03/27 08:10:08;;;;;;;6.70;3.58;;;;;;;9.62;38.70;102234.84;5074110;28;20334;-68
2022/03/27 08:12:35;;;;;;;5.47;2.80;;;;;;;9.79;38.45;102232.41;5073665;28;20526;-68
2022/03/27 08:15:02;;;;;;;8.63;3.30;;;;;;;9.93;38.10;102241.31;5073761;28;20043;-68
2022/03/27 08:17:27;;;;;;;6.90;3.25;;;;;;;9.95;37.55;102244.84;5073986;28;20137;-68
2022/03/27 08:19:53;;;;;;;10.35;6.57;;;;;;;9.92;36.06;102244.81;5073603;28;20121;-68
2022/03/27 08:22:21;;;;;;;6.63;3.22;;;;;;;10.11;36.48;102246.75;5074955;28;20032;-68
2022/03/27 08:24:47;;;;;;;9.15;6.07;;;;;;;10.27;36.27;102241.69;5057308;28;20503;-68
2022/03/27 08:27:14;;;;;;;5.60;2.30;;;;;;;10.40;35.77;102243.53;5074644;28;20028;-68
2022/03/27 08:29:41;;;;;;;5.85;2.30;;;;;;;10.53;34.89;102245.44;5074515;28;20063;-68
2022/03/27 08:32:09;;;;;;;4.80;2.17;;;;;;;10.67;35.10;102234.13;5073355;28;20033;-68
2022/03/27 08:34:36;;;;;;;3.95;2.10;;;;;;;10.89;34.37;102237.78;5056794;28;20037;-68
2022/03/27 08:37:04;;;;;;;4.47;1.65;;;;;;;11.02;34.82;102232.63;5073481;28;20032;-68
2022/03/27 08:39:29;;;;;;;4.75;2.22;;;;;;;11.17;34.94;102221.31;5073446;28;20029;-69
2022/03/27 08:41:57;;;;;;;7.53;2.50;;;;;;;11.19;34.88;102211.66;5072988;28;20059;-69
2022/03/27 08:44:26;;;;;;;4.18;2.05;;;;;;;11.16;35.38;102216.03;5073133;28;20025;-69
2022/03/27 08:46:53;;;;;;;5.40;2.50;;;;;;;11.19;35.27;102218.69;5073026;28;20028;-69
2022/03/27 08:49:34;;;;;;;6.38;3.10;;;;;;;11.25;35.46;102221.31;5073314;28;20113;-69
2022/03/27 08:52:11;;;;;;;4.57;2.50;;;;;;;11.35;35.06;102220.50;5072858;28;20123;-69
2022/03/27 08:54:42;;;;;;;3.55;2.15;;;;;;;11.42;34.10;102217.03;5073228;28;20036;-69
2022/03/27 08:57:24;;;;;;;5.13;2.58;;;;;;;11.49;33.19;102210.00;5056849;28;20032;-68
2022/03/27 08:59:54;;;;;;;4.65;2.35;;;;;;;11.50;32.69;102201.28;5073040;28;20048;-69
2022/03/27 09:02:23;;;;;;;4.25;3.05;;;;;;;11.73;33.56;102198.69;5074084;28;20048;-69
2022/03/27 09:04:53;;;;;;;5.82;2.75;;;;;;;11.73;31.46;102183.78;5072762;28;20464;-68
2022/03/27 09:07:19;;;;;;;7.47;4.18;;;;;;;11.77;32.69;102182.91;5074114;28;20024;-69
2022/03/27 09:09:44;;;;;;;8.82;5.20;;;;;;;11.80;32.72;102185.53;5074142;28;20043;-69
2022/03/27 09:12:11;;;;;;;5.88;3.47;;;;;;;11.95;32.49;102168.91;5074035;28;20025;-69
2022/03/27 09:14:39;;;;;;;6.13;2.60;;;;;;;12.00;32.29;102172.41;5056047;28;20494;-69
2022/03/27 09:17:06;;;;;;;5.25;1.40;;;;;;;11.85;31.82;102167.16;5055950;28;20126;-68
2022/03/27 09:19:49;;;;;;;2.42;1.55;;;;;;;11.80;31.07;102160.94;5072979;28;20033;-69
2022/03/27 09:22:22;;;;;;;5.25;2.33;;;;;;;11.86;30.50;102161.00;5072718;28;20083;-69
2022/03/27 09:24:56;;;;;;;6.47;2.15;;;;;;;12.03;30.34;102161.91;5072941;28;20048;-69
2022/03/27 09:27:34;;;;;;;5.13;2.40;;;;;;;12.40;30.57;102159.25;5056025;28;20029;-69
2022/03/27 09:30:09;;;;;;;3.28;1.40;;;;;;;12.47;30.21;102150.47;5073842;28;20029;-69
2022/03/27 09:32:42;;;;;;;3.00;1.33;;;;;;;12.65;29.02;102156.59;5072414;28;20036;-69
2022/03/27 09:35:17;;;;;;;4.53;1.90;;;;;;;12.85;30.71;102152.16;5074026;28;20036;-68
2022/03/27 09:37:48;;;;;;;2.92;0.82;;;;;;;13.01;30.22;102150.34;5073672;28;20036;-68
2022/03/27 09:40:16;;;;;;;4.03;1.15;;;;;;;13.17;30.30;102145.88;5072809;28;20115;-68
2022/03/27 09:42:43;;;;;;;3.00;1.13;;;;;;;13.36;29.68;102134.34;5072360;28;20024;-68
2022/03/27 09:45:26;;;;;;;3.50;1.70;;;;;;;13.50;28.68;102127.25;5072343;28;20039;-69
2022/03/27 09:47:55;;;;;;;7.65;3.90;;;;;;;13.65;29.45;102135.97;5073683;28;20032;-68
2022/03/27 09:50:30;;;;;;;8.88;5.15;;;;;;;13.77;28.01;102134.13;5055888;28;20028;-68
2022/03/27 09:53:26;;;;;;;7.40;4.28;;;;;;;13.74;26.89;102141.19;5074007;28;20472;-69
2022/03/27 09:55:58;;;;;;;9.52;6.22;;;;;;;13.74;27.51;102135.91;5073418;28;20478;-69
2022/03/27 09:58:36;;;;;;;7.82;5.32;;;;;;;13.69;26.27;102135.94;5071745;28;20052;-69
2022/03/27 10:01:22;;;;;;;13.02;8.82;;;;;;;13.44;26.49;102124.63;5072075;28;20046;-69
2022/03/27 10:04:04;;;;;;;9.75;6.50;;;;;;;13.26;26.50;102116.81;5072477;28;20024;-68
2022/03/27 10:06:30;;;;;;;9.60;6.00;;;;;;;13.41;28.39;102102.69;5055608;28;20040;-69
2022/03/27 10:08:55;;;;;;;5.43;3.50;;;;;;;13.31;28.31;102096.56;5073320;28;20097;-69
2022/03/27 10:11:22;;;;;;;9.95;5.75;;;;;;;13.31;28.29;102092.16;5071959;28;20116;-68
2022/03/27 10:13:52;;;;;;;7.88;4.93;;;;;;;13.39;28.23;102094.75;5073764;28;20031;-69
2022/03/27 10:16:23;;;;;;;5.28;2.45;;;;;;;13.54;28.51;102081.44;5055873;28;20067;-69
2022/03/27 10:18:53;;;;;;;6.43;3.90;;;;;;;13.71;28.09;102069.88;5072013;28;20039;-69
2022/03/27 10:21:19;;;;;;;6.30;2.50;;;;;;;13.80;28.45;102075.06;5073309;28;20079;-69
2022/03/27 10:23:47;;;;;;;6.90;3.50;;;;;;;13.92;28.06;102076.75;5055220;28;20499;-69
2022/03/27 10:26:13;;;;;;;5.47;2.90;;;;;;;13.98;28.23;102068.78;5073270;28;20090;-69
2022/03/27 10:28:39;;;;;;;14.15;9.18;;;;;;;13.96;28.17;102076.72;5072493;28;20101;-68
2022/03/27 10:31:06;;;;;;;4.45;2.70;;;;;;;13.89;28.08;102069.75;5073331;28;20036;-69
2022/03/27 10:33:33;;;;;;;32.42;22.42;;;;;;;13.86;28.18;102063.59;5073186;28;20040;-69
2022/03/27 10:36:36;;;;;;;19.73;11.00;;;;;;;13.73;27.72;102052.25;5071951;28;20047;-69
2022/03/27 10:39:11;;;;;;;13.07;7.20;;;;;;;13.99;27.57;102042.31;5050690;28;20485;-69
2022/03/27 10:41:57;;;;;;;15.77;5.70;;;;;;;14.25;27.03;102051.78;5069904;28;20047;-69
2022/03/27 10:44:31;;;;;;;13.27;6.68;;;;;;;14.40;26.33;102051.63;5071994;28;20028;-67
2022/03/27 10:47:13;;;;;;;9.63;4.10;;;;;;;14.46;26.09;102038.31;5071955;28;20028;-67
2022/03/27 10:49:40;;;;;;;11.77;4.97;;;;;;;14.56;27.01;102056.75;5073117;28;20063;-67
2022/03/27 10:52:07;;;;;;;9.60;5.00;;;;;;;14.69;27.01;102053.94;5072827;28;20040;-67
2022/03/27 10:54:55;;;;;;;7.93;3.67;;;;;;;14.67;25.90;102054.84;5058586;28;20384;-67
2022/03/27 10:57:40;;;;;;;7.47;4.00;;;;;;;14.63;25.79;102048.72;5074915;28;20032;-67
2022/03/27 11:00:08;;;;;;;9.88;4.50;;;;;;;14.49;26.76;102045.38;5076603;28;20043;-68
2022/03/27 11:02:45;;;;;;;7.70;4.07;;;;;;;14.34;25.81;102038.44;5075162;28;20040;-68
2022/03/27 11:05:58;;;;;;;12.32;6.00;;;;;;;13.99;26.45;102031.75;5075204;28;20032;-68
2022/03/27 11:08:25;;;;;;;6.18;3.05;;;;;;;14.09;27.48;102035.19;5040335;28;20047;-68
2022/03/27 11:10:54;;;;;;;11.05;5.00;;;;;;;14.12;27.65;102024.56;5075039;28;20076;-67
2022/03/27 11:13:29;;;;;;;16.90;8.15;;;;;;;14.35;27.07;102026.09;5074974;28;20031;-68
2022/03/27 11:16:15;;;;;;;9.27;3.22;;;;;;;14.62;26.97;102014.38;5074565;28;20060;-67
2022/03/27 11:18:46;;;;;;;6.50;2.33;;;;;;;14.84;26.91;102015.84;5074716;28;20090;-68
2022/03/27 11:21:32;;;;;;;3.50;1.35;;;;;;;14.79;26.08;102007.06;5074771;28;20068;-68
2022/03/27 11:24:03;;;;;;;2.72;1.20;;;;;;;15.00;26.70;102004.16;5076010;28;20376;-67
2022/03/27 11:26:31;;;;;;;6.03;2.75;;;;;;;15.38;26.59;101994.75;5076166;28;20048;-67
2022/03/27 11:29:10;;;;;;;20.13;9.18;;;;;;;15.58;26.55;101985.59;5075958;28;20033;-68
2022/03/27 11:31:37;;;;;;;11.07;5.43;;;;;;;15.85;26.25;101984.28;5075929;28;20060;-67
2022/03/27 11:34:12;;;;;;;4.95;2.63;;;;;;;15.82;25.64;101981.66;5074568;28;20029;-67